sensor_id;sensor_type;location;lat;lon;timestamp;temperature;humidity
10660;DHT22;5378;53.206;13.316;2023-10-13T00:01:44;11.80;99.90
10660;DHT22;5378;53.206;13.316;2023-10-13T00:04:33;12.00;99.90
10660;DHT22;5378;53.206;13.316;2023-10-13T00:07:42;12.10;99.90
10660;DHT22;5378;53.206;13.316;2023-10-13T00:10:47;12.20;99.90
10660;DHT22;5378;53.206;13.316;2023-10-13T00:13:35;12.30;99.90
10660;DHT22;5378;53.206;13.316;2023-10-13T00:16:28;12.30;99.90
10660;DHT22;5378;53.206;13.316;2023-10-13T00:19:17;12.30;99.90
10660;DHT22;5378;53.206;13.316;2023-10-13T00:22:06;12.20;99.90
10660;DHT22;5378;53.206;13.316;2023-10-13T00:24:57;12.10;99.90
10660;DHT22;5378;53.206;13.316;2023-10-13T00:27:45;12.00;99.90
10660;DHT22;5378;53.206;13.316;2023-10-13T00:30:38;11.90;99.90
10660;DHT22;5378;53.206;13.316;2023-10-13T00:33:25;11.80;99.90
10660;DHT22;5378;53.206;13.316;2023-10-13T00:36:12;11.70;99.90
10660;DHT22;5378;53.206;13.316;2023-10-13T00:39:05;11.80;99.90
10660;DHT22;5378;53.206;13.316;2023-10-13T00:41:54;11.90;99.90
10660;DHT22;5378;53.206;13.316;2023-10-13T00:44:45;12.00;99.90
10660;DHT22;5378;53.206;13.316;2023-10-13T00:47:34;12.10;99.90
10660;DHT22;5378;53.206;13.316;2023-10-13T00:50:34;12.20;99.90
10660;DHT22;5378;53.206;13.316;2023-10-13T00:53:22;12.30;99.90
10660;DHT22;5378;53.206;13.316;2023-10-13T00:56:11;12.30;99.90
10660;DHT22;5378;53.206;13.316;2023-10-13T00:59:06;12.30;99.90
10660;DHT22;5378;53.206;13.316;2023-10-13T01:01:56;12.20;99.90
10660;DHT22;5378;53.206;13.316;2023-10-13T01:04:43;12.10;99.90
10660;DHT22;5378;53.206;13.316;2023-10-13T01:07:33;12.10;99.90
10660;DHT22;5378;53.206;13.316;2023-10-13T01:10:23;12.20;99.90
10660;DHT22;5378;53.206;13.316;2023-10-13T01:13:13;12.40;99.90
10660;DHT22;5378;53.206;13.316;2023-10-13T01:16:02;12.50;99.90
10660;DHT22;5378;53.206;13.316;2023-10-13T01:18:53;12.50;99.90
10660;DHT22;5378;53.206;13.316;2023-10-13T01:21:39;12.50;99.90
10660;DHT22;5378;53.206;13.316;2023-10-13T01:24:28;12.40;99.90
10660;DHT22;5378;53.206;13.316;2023-10-13T01:27:17;12.30;99.90
10660;DHT22;5378;53.206;13.316;2023-10-13T01:30:06;12.30;99.90
10660;DHT22;5378;53.206;13.316;2023-10-13T01:32:56;12.40;99.90
10660;DHT22;5378;53.206;13.316;2023-10-13T01:35:46;12.40;99.90
10660;DHT22;5378;53.206;13.316;2023-10-13T01:38:33;12.40;99.90
10660;DHT22;5378;53.206;13.316;2023-10-13T01:41:23;12.50;99.90
10660;DHT22;5378;53.206;13.316;2023-10-13T01:44:10;12.50;99.90
10660;DHT22;5378;53.206;13.316;2023-10-13T01:46:58;12.50;99.90
10660;DHT22;5378;53.206;13.316;2023-10-13T01:49:45;12.40;99.90
10660;DHT22;5378;53.206;13.316;2023-10-13T01:52:36;12.40;99.90
10660;DHT22;5378;53.206;13.316;2023-10-13T01:55:22;12.40;99.90
10660;DHT22;5378;53.206;13.316;2023-10-13T01:58:13;12.30;99.90
10660;DHT22;5378;53.206;13.316;2023-10-13T02:01:00;12.30;99.90
10660;DHT22;5378;53.206;13.316;2023-10-13T02:03:48;12.30;99.90
10660;DHT22;5378;53.206;13.316;2023-10-13T02:06:36;12.30;99.90
10660;DHT22;5378;53.206;13.316;2023-10-13T02:09:22;12.30;99.90
10660;DHT22;5378;53.206;13.316;2023-10-13T02:12:12;12.40;99.90
10660;DHT22;5378;53.206;13.316;2023-10-13T02:15:03;12.40;99.90
10660;DHT22;5378;53.206;13.316;2023-10-13T02:17:50;12.40;99.90
10660;DHT22;5378;53.206;13.316;2023-10-13T02:20:38;12.50;99.90
10660;DHT22;5378;53.206;13.316;2023-10-13T02:23:29;12.60;99.90
10660;DHT22;5378;53.206;13.316;2023-10-13T02:26:15;12.80;99.90
10660;DHT22;5378;53.206;13.316;2023-10-13T02:29:15;12.80;99.90
10660;DHT22;5378;53.206;13.316;2023-10-13T02:32:05;12.80;99.90
10660;DHT22;5378;53.206;13.316;2023-10-13T02:34:58;12.80;99.90
10660;DHT22;5378;53.206;13.316;2023-10-13T02:37:52;12.80;99.90
10660;DHT22;5378;53.206;13.316;2023-10-13T02:40:43;12.80;99.90
10660;DHT22;5378;53.206;13.316;2023-10-13T02:43:30;12.90;99.90
10660;DHT22;5378;53.206;13.316;2023-10-13T02:46:19;12.90;99.90
10660;DHT22;5378;53.206;13.316;2023-10-13T02:49:09;12.80;99.90
10660;DHT22;5378;53.206;13.316;2023-10-13T02:51:57;12.80;99.90
10660;DHT22;5378;53.206;13.316;2023-10-13T02:54:50;12.80;99.90
10660;DHT22;5378;53.206;13.316;2023-10-13T02:57:37;12.80;99.90
10660;DHT22;5378;53.206;13.316;2023-10-13T03:00:26;12.80;99.90
10660;DHT22;5378;53.206;13.316;2023-10-13T03:03:18;12.80;99.90
10660;DHT22;5378;53.206;13.316;2023-10-13T03:06:07;12.90;99.90
10660;DHT22;5378;53.206;13.316;2023-10-13T03:08:53;12.90;99.90
10660;DHT22;5378;53.206;13.316;2023-10-13T03:11:40;12.90;99.90
10660;DHT22;5378;53.206;13.316;2023-10-13T03:14:28;12.90;99.90
10660;DHT22;5378;53.206;13.316;2023-10-13T03:17:17;12.90;99.90
10660;DHT22;5378;53.206;13.316;2023-10-13T03:20:09;12.80;99.90
10660;DHT22;5378;53.206;13.316;2023-10-13T03:22:59;12.80;99.90
10660;DHT22;5378;53.206;13.316;2023-10-13T03:25:45;12.90;99.90
10660;DHT22;5378;53.206;13.316;2023-10-13T03:28:39;12.90;99.90
10660;DHT22;5378;53.206;13.316;2023-10-13T03:31:26;13.00;99.90
10660;DHT22;5378;53.206;13.316;2023-10-13T03:34:14;13.00;99.90
10660;DHT22;5378;53.206;13.316;2023-10-13T03:37:04;13.10;99.90
10660;DHT22;5378;53.206;13.316;2023-10-13T03:40:00;13.00;99.90
10660;DHT22;5378;53.206;13.316;2023-10-13T03:42:53;13.00;99.90
10660;DHT22;5378;53.206;13.316;2023-10-13T03:45:50;13.00;99.90
10660;DHT22;5378;53.206;13.316;2023-10-13T03:48:46;13.10;99.90
10660;DHT22;5378;53.206;13.316;2023-10-13T03:51:40;13.10;99.90
10660;DHT22;5378;53.206;13.316;2023-10-13T03:54:27;13.20;99.90
10660;DHT22;5378;53.206;13.316;2023-10-13T03:57:17;13.20;99.90
10660;DHT22;5378;53.206;13.316;2023-10-13T04:00:06;13.30;99.90
10660;DHT22;5378;53.206;13.316;2023-10-13T04:02:57;13.30;99.90
10660;DHT22;5378;53.206;13.316;2023-10-13T04:05:54;13.40;99.90
10660;DHT22;5378;53.206;13.316;2023-10-13T04:08:52;13.30;99.90
10660;DHT22;5378;53.206;13.316;2023-10-13T04:11:53;13.30;99.90
10660;DHT22;5378;53.206;13.316;2023-10-13T04:14:55;13.40;99.90
10660;DHT22;5378;53.206;13.316;2023-10-13T04:17:57;13.30;99.90
10660;DHT22;5378;53.206;13.316;2023-10-13T04:20:44;13.30;99.90
10660;DHT22;5378;53.206;13.316;2023-10-13T04:23:32;13.30;99.90
10660;DHT22;5378;53.206;13.316;2023-10-13T04:26:40;13.40;99.90
10660;DHT22;5378;53.206;13.316;2023-10-13T04:29:49;13.40;99.90
10660;DHT22;5378;53.206;13.316;2023-10-13T04:32:43;13.40;99.90
10660;DHT22;5378;53.206;13.316;2023-10-13T04:35:51;13.50;99.90
10660;DHT22;5378;53.206;13.316;2023-10-13T04:38:45;13.40;99.90
10660;DHT22;5378;53.206;13.316;2023-10-13T04:41:46;13.40;99.90
10660;DHT22;5378;53.206;13.316;2023-10-13T04:44:43;13.50;99.90
10660;DHT22;5378;53.206;13.316;2023-10-13T04:47:38;13.50;99.90
10660;DHT22;5378;53.206;13.316;2023-10-13T04:50:30;13.50;99.90
10660;DHT22;5378;53.206;13.316;2023-10-13T04:53:27;13.60;99.90
10660;DHT22;5378;53.206;13.316;2023-10-13T04:56:16;13.60;99.90
10660;DHT22;5378;53.206;13.316;2023-10-13T04:59:17;13.60;99.90
10660;DHT22;5378;53.206;13.316;2023-10-13T05:02:21;13.70;99.90
10660;DHT22;5378;53.206;13.316;2023-10-13T05:05:25;13.80;99.90
10660;DHT22;5378;53.206;13.316;2023-10-13T05:08:32;13.80;99.90
10660;DHT22;5378;53.206;13.316;2023-10-13T05:12:00;13.90;99.90
10660;DHT22;5378;53.206;13.316;2023-10-13T05:15:24;13.90;99.90
10660;DHT22;5378;53.206;13.316;2023-10-13T05:18:29;13.90;99.90
10660;DHT22;5378;53.206;13.316;2023-10-13T05:21:34;13.90;99.90
10660;DHT22;5378;53.206;13.316;2023-10-13T05:24:40;13.90;99.90
10660;DHT22;5378;53.206;13.316;2023-10-13T05:27:45;13.90;99.90
10660;DHT22;5378;53.206;13.316;2023-10-13T05:31:10;13.90;99.90
10660;DHT22;5378;53.206;13.316;2023-10-13T05:34:15;13.90;99.90
10660;DHT22;5378;53.206;13.316;2023-10-13T05:37:38;14.00;99.90
10660;DHT22;5378;53.206;13.316;2023-10-13T05:41:04;14.10;99.90
10660;DHT22;5378;53.206;13.316;2023-10-13T05:44:10;14.00;99.90
10660;DHT22;5378;53.206;13.316;2023-10-13T05:47:15;14.00;99.90
10660;DHT22;5378;53.206;13.316;2023-10-13T05:50:20;13.90;99.90
10660;DHT22;5378;53.206;13.316;2023-10-13T05:53:36;13.80;99.90
10660;DHT22;5378;53.206;13.316;2023-10-13T05:56:42;13.80;99.90
10660;DHT22;5378;53.206;13.316;2023-10-13T05:59:46;13.80;99.90
10660;DHT22;5378;53.206;13.316;2023-10-13T06:02:51;13.90;99.90
10660;DHT22;5378;53.206;13.316;2023-10-13T06:05:56;13.90;99.90
10660;DHT22;5378;53.206;13.316;2023-10-13T06:09:00;14.00;99.90
10660;DHT22;5378;53.206;13.316;2023-10-13T06:12:06;14.10;99.90
10660;DHT22;5378;53.206;13.316;2023-10-13T06:15:11;14.10;99.90
10660;DHT22;5378;53.206;13.316;2023-10-13T06:18:15;14.10;99.90
10660;DHT22;5378;53.206;13.316;2023-10-13T06:21:20;14.10;99.90
10660;DHT22;5378;53.206;13.316;2023-10-13T06:24:24;14.20;99.90
10660;DHT22;5378;53.206;13.316;2023-10-13T06:27:30;14.20;99.90
10660;DHT22;5378;53.206;13.316;2023-10-13T06:30:35;14.20;99.90
10660;DHT22;5378;53.206;13.316;2023-10-13T06:33:22;14.40;99.90
10660;DHT22;5378;53.206;13.316;2023-10-13T06:36:14;14.40;99.90
10660;DHT22;5378;53.206;13.316;2023-10-13T06:39:03;14.40;99.90
10660;DHT22;5378;53.206;13.316;2023-10-13T06:42:04;14.50;99.90
10660;DHT22;5378;53.206;13.316;2023-10-13T06:44:53;14.60;99.90
10660;DHT22;5378;53.206;13.316;2023-10-13T06:47:40;14.60;99.90
10660;DHT22;5378;53.206;13.316;2023-10-13T06:50:29;14.70;99.90
10660;DHT22;5378;53.206;13.316;2023-10-13T06:53:25;14.80;99.90
10660;DHT22;5378;53.206;13.316;2023-10-13T06:56:13;14.80;99.90
10660;DHT22;5378;53.206;13.316;2023-10-13T06:59:03;14.90;99.90
10660;DHT22;5378;53.206;13.316;2023-10-13T07:01:53;15.00;99.90
10660;DHT22;5378;53.206;13.316;2023-10-13T07:04:51;15.00;99.90
10660;DHT22;5378;53.206;13.316;2023-10-13T07:07:43;15.00;99.90
10660;DHT22;5378;53.206;13.316;2023-10-13T07:10:31;15.10;99.90
10660;DHT22;5378;53.206;13.316;2023-10-13T07:13:22;15.30;99.90
10660;DHT22;5378;53.206;13.316;2023-10-13T07:16:13;15.40;99.90
10660;DHT22;5378;53.206;13.316;2023-10-13T07:19:15;15.50;99.90
10660;DHT22;5378;53.206;13.316;2023-10-13T07:22:03;15.60;99.90
10660;DHT22;5378;53.206;13.316;2023-10-13T07:25:05;15.60;99.90
10660;DHT22;5378;53.206;13.316;2023-10-13T07:27:53;15.70;99.90
10660;DHT22;5378;53.206;13.316;2023-10-13T07:30:43;15.90;99.90
10660;DHT22;5378;53.206;13.316;2023-10-13T07:33:35;16.00;99.90
10660;DHT22;5378;53.206;13.316;2023-10-13T07:36:23;16.10;99.90
10660;DHT22;5378;53.206;13.316;2023-10-13T07:39:13;16.30;99.90
10660;DHT22;5378;53.206;13.316;2023-10-13T07:42:07;16.40;99.90
10660;DHT22;5378;53.206;13.316;2023-10-13T07:45:01;16.50;99.90
10660;DHT22;5378;53.206;13.316;2023-10-13T07:47:50;16.80;99.90
10660;DHT22;5378;53.206;13.316;2023-10-13T07:50:38;17.10;99.90
10660;DHT22;5378;53.206;13.316;2023-10-13T07:53:27;17.40;99.90
10660;DHT22;5378;53.206;13.316;2023-10-13T07:56:20;17.50;99.90
10660;DHT22;5378;53.206;13.316;2023-10-13T07:59:07;17.50;99.90
10660;DHT22;5378;53.206;13.316;2023-10-13T08:01:55;17.50;99.90
10660;DHT22;5378;53.206;13.316;2023-10-13T08:04:56;17.40;99.90
10660;DHT22;5378;53.206;13.316;2023-10-13T08:07:44;17.40;99.90
10660;DHT22;5378;53.206;13.316;2023-10-13T08:10:36;17.30;99.90
10660;DHT22;5378;53.206;13.316;2023-10-13T08:13:24;17.40;99.90
10660;DHT22;5378;53.206;13.316;2023-10-13T08:16:12;17.40;99.90
10660;DHT22;5378;53.206;13.316;2023-10-13T08:19:06;17.40;99.90
10660;DHT22;5378;53.206;13.316;2023-10-13T08:21:57;17.30;99.90
10660;DHT22;5378;53.206;13.316;2023-10-13T08:24:46;17.30;99.90
10660;DHT22;5378;53.206;13.316;2023-10-13T08:27:46;17.30;99.90
10660;DHT22;5378;53.206;13.316;2023-10-13T08:30:36;17.20;99.90
10660;DHT22;5378;53.206;13.316;2023-10-13T08:33:38;17.30;99.90
10660;DHT22;5378;53.206;13.316;2023-10-13T08:36:25;17.30;99.90
10660;DHT22;5378;53.206;13.316;2023-10-13T08:39:16;17.40;99.90
10660;DHT22;5378;53.206;13.316;2023-10-13T08:42:30;17.40;99.90
10660;DHT22;5378;53.206;13.316;2023-10-13T08:45:28;17.50;99.90
10660;DHT22;5378;53.206;13.316;2023-10-13T08:48:31;17.60;99.90
10660;DHT22;5378;53.206;13.316;2023-10-13T08:51:21;17.70;99.90
10660;DHT22;5378;53.206;13.316;2023-10-13T08:54:29;17.70;99.90
10660;DHT22;5378;53.206;13.316;2023-10-13T08:57:20;17.90;99.90
10660;DHT22;5378;53.206;13.316;2023-10-13T09:00:19;17.90;99.90
10660;DHT22;5378;53.206;13.316;2023-10-13T09:03:36;18.00;99.90
10660;DHT22;5378;53.206;13.316;2023-10-13T09:06:27;17.90;99.90
10660;DHT22;5378;53.206;13.316;2023-10-13T09:09:14;17.80;99.90
10660;DHT22;5378;53.206;13.316;2023-10-13T09:12:13;17.80;99.90
10660;DHT22;5378;53.206;13.316;2023-10-13T09:15:01;17.70;99.90
10660;DHT22;5378;53.206;13.316;2023-10-13T09:17:51;17.70;99.90
10660;DHT22;5378;53.206;13.316;2023-10-13T09:20:41;17.70;99.90
10660;DHT22;5378;53.206;13.316;2023-10-13T09:23:31;17.80;99.90
10660;DHT22;5378;53.206;13.316;2023-10-13T09:26:33;17.80;99.90
10660;DHT22;5378;53.206;13.316;2023-10-13T09:29:22;17.90;99.90
10660;DHT22;5378;53.206;13.316;2023-10-13T09:32:10;17.90;99.90
10660;DHT22;5378;53.206;13.316;2023-10-13T09:35:01;17.90;99.90
10660;DHT22;5378;53.206;13.316;2023-10-13T09:37:53;17.90;99.90
10660;DHT22;5378;53.206;13.316;2023-10-13T09:40:43;17.90;99.90
10660;DHT22;5378;53.206;13.316;2023-10-13T09:43:35;18.00;99.90
10660;DHT22;5378;53.206;13.316;2023-10-13T09:46:26;18.10;99.90
10660;DHT22;5378;53.206;13.316;2023-10-13T09:49:19;18.10;99.90
10660;DHT22;5378;53.206;13.316;2023-10-13T09:52:31;18.10;99.90
10660;DHT22;5378;53.206;13.316;2023-10-13T09:55:26;18.10;99.90
10660;DHT22;5378;53.206;13.316;2023-10-13T09:58:17;18.20;99.90
10660;DHT22;5378;53.206;13.316;2023-10-13T10:01:06;18.20;99.90
10660;DHT22;5378;53.206;13.316;2023-10-13T10:03:55;18.20;99.90
10660;DHT22;5378;53.206;13.316;2023-10-13T10:06:56;18.20;99.90
10660;DHT22;5378;53.206;13.316;2023-10-13T10:09:42;18.10;99.90
10660;DHT22;5378;53.206;13.316;2023-10-13T10:12:38;18.00;99.90
10660;DHT22;5378;53.206;13.316;2023-10-13T10:15:29;18.00;99.90
10660;DHT22;5378;53.206;13.316;2023-10-13T10:18:22;18.20;99.90
10660;DHT22;5378;53.206;13.316;2023-10-13T10:21:11;18.30;99.90
10660;DHT22;5378;53.206;13.316;2023-10-13T10:24:01;18.40;99.90
10660;DHT22;5378;53.206;13.316;2023-10-13T10:26:51;18.30;99.90
10660;DHT22;5378;53.206;13.316;2023-10-13T10:29:42;18.20;99.90
10660;DHT22;5378;53.206;13.316;2023-10-13T10:32:39;18.20;99.90
10660;DHT22;5378;53.206;13.316;2023-10-13T10:35:28;18.10;99.90
10660;DHT22;5378;53.206;13.316;2023-10-13T10:38:18;18.10;99.90
10660;DHT22;5378;53.206;13.316;2023-10-13T10:41:25;18.10;99.90
10660;DHT22;5378;53.206;13.316;2023-10-13T10:44:16;18.00;99.90
10660;DHT22;5378;53.206;13.316;2023-10-13T10:47:14;17.90;99.90
10660;DHT22;5378;53.206;13.316;2023-10-13T10:50:05;17.90;99.90
10660;DHT22;5378;53.206;13.316;2023-10-13T10:53:05;17.80;99.90
10660;DHT22;5378;53.206;13.316;2023-10-13T10:56:04;17.90;99.90
10660;DHT22;5378;53.206;13.316;2023-10-13T10:58:55;17.90;99.90
10660;DHT22;5378;53.206;13.316;2023-10-13T11:01:44;17.80;99.90
10660;DHT22;5378;53.206;13.316;2023-10-13T11:04:35;17.80;99.90
10660;DHT22;5378;53.206;13.316;2023-10-13T11:07:26;17.80;99.90
10660;DHT22;5378;53.206;13.316;2023-10-13T11:10:15;17.70;99.90
10660;DHT22;5378;53.206;13.316;2023-10-13T11:13:13;17.70;99.90
10660;DHT22;5378;53.206;13.316;2023-10-13T11:16:08;17.80;99.90
10660;DHT22;5378;53.206;13.316;2023-10-13T11:19:01;17.90;99.90
10660;DHT22;5378;53.206;13.316;2023-10-13T11:21:49;18.00;99.90
10660;DHT22;5378;53.206;13.316;2023-10-13T11:24:39;18.20;99.90
10660;DHT22;5378;53.206;13.316;2023-10-13T11:27:29;18.40;99.90
10660;DHT22;5378;53.206;13.316;2023-10-13T11:30:30;18.60;99.90
10660;DHT22;5378;53.206;13.316;2023-10-13T11:33:27;18.80;99.90
10660;DHT22;5378;53.206;13.316;2023-10-13T11:36:15;18.90;99.90
10660;DHT22;5378;53.206;13.316;2023-10-13T11:39:10;18.80;99.90
10660;DHT22;5378;53.206;13.316;2023-10-13T11:42:03;18.70;99.90
10660;DHT22;5378;53.206;13.316;2023-10-13T11:44:56;18.70;99.90
10660;DHT22;5378;53.206;13.316;2023-10-13T11:48:03;18.80;99.90
10660;DHT22;5378;53.206;13.316;2023-10-13T11:50:57;18.90;99.90
10660;DHT22;5378;53.206;13.316;2023-10-13T11:53:44;19.10;99.90
10660;DHT22;5378;53.206;13.316;2023-10-13T11:56:35;19.40;99.90
10660;DHT22;5378;53.206;13.316;2023-10-13T11:59:24;19.70;99.90
10660;DHT22;5378;53.206;13.316;2023-10-13T12:02:13;19.70;99.90
10660;DHT22;5378;53.206;13.316;2023-10-13T12:05:31;19.60;99.90
10660;DHT22;5378;53.206;13.316;2023-10-13T12:08:34;19.60;99.90
10660;DHT22;5378;53.206;13.316;2023-10-13T12:11:25;19.60;99.90
10660;DHT22;5378;53.206;13.316;2023-10-13T12:14:19;19.60;99.90
10660;DHT22;5378;53.206;13.316;2023-10-13T12:17:07;19.60;99.90
10660;DHT22;5378;53.206;13.316;2023-10-13T12:19:57;19.60;99.90
10660;DHT22;5378;53.206;13.316;2023-10-13T12:22:45;19.60;99.90
10660;DHT22;5378;53.206;13.316;2023-10-13T12:25:41;19.60;99.90
10660;DHT22;5378;53.206;13.316;2023-10-13T12:28:44;19.60;99.90
10660;DHT22;5378;53.206;13.316;2023-10-13T12:31:38;19.70;99.90
10660;DHT22;5378;53.206;13.316;2023-10-13T12:34:37;19.80;99.90
10660;DHT22;5378;53.206;13.316;2023-10-13T12:37:43;19.80;99.90
10660;DHT22;5378;53.206;13.316;2023-10-13T12:40:37;20.00;99.90
10660;DHT22;5378;53.206;13.316;2023-10-13T12:43:41;20.10;99.90
10660;DHT22;5378;53.206;13.316;2023-10-13T12:46:47;20.20;99.90
10660;DHT22;5378;53.206;13.316;2023-10-13T12:49:52;20.00;99.90
10660;DHT22;5378;53.206;13.316;2023-10-13T12:52:44;20.00;99.90
10660;DHT22;5378;53.206;13.316;2023-10-13T12:55:31;19.90;99.90
10660;DHT22;5378;53.206;13.316;2023-10-13T12:58:18;19.90;99.90
10660;DHT22;5378;53.206;13.316;2023-10-13T13:01:13;19.80;99.90
10660;DHT22;5378;53.206;13.316;2023-10-13T13:04:01;19.90;99.90
10660;DHT22;5378;53.206;13.316;2023-10-13T13:06:51;20.00;99.90
10660;DHT22;5378;53.206;13.316;2023-10-13T13:09:40;20.10;99.90
10660;DHT22;5378;53.206;13.316;2023-10-13T13:12:27;20.10;99.90
10660;DHT22;5378;53.206;13.316;2023-10-13T13:15:15;20.20;99.90
10660;DHT22;5378;53.206;13.316;2023-10-13T13:18:02;20.10;99.90
10660;DHT22;5378;53.206;13.316;2023-10-13T13:20:59;20.10;99.90
10660;DHT22;5378;53.206;13.316;2023-10-13T13:23:48;20.00;99.90
10660;DHT22;5378;53.206;13.316;2023-10-13T13:26:35;20.10;99.90
10660;DHT22;5378;53.206;13.316;2023-10-13T13:29:22;20.10;99.90
10660;DHT22;5378;53.206;13.316;2023-10-13T13:32:12;20.10;99.90
10660;DHT22;5378;53.206;13.316;2023-10-13T13:35:09;20.10;99.90
10660;DHT22;5378;53.206;13.316;2023-10-13T13:38:01;20.10;99.90
10660;DHT22;5378;53.206;13.316;2023-10-13T13:40:55;20.20;99.90
10660;DHT22;5378;53.206;13.316;2023-10-13T13:43:43;20.00;99.90
10660;DHT22;5378;53.206;13.316;2023-10-13T13:46:40;20.00;99.90
10660;DHT22;5378;53.206;13.316;2023-10-13T13:49:30;19.90;99.90
10660;DHT22;5378;53.206;13.316;2023-10-13T13:52:25;19.80;99.90
10660;DHT22;5378;53.206;13.316;2023-10-13T13:55:21;19.90;99.90
10660;DHT22;5378;53.206;13.316;2023-10-13T13:58:09;20.00;99.90
10660;DHT22;5378;53.206;13.316;2023-10-13T14:01:00;20.10;99.90
10660;DHT22;5378;53.206;13.316;2023-10-13T14:03:57;20.10;99.90
10660;DHT22;5378;53.206;13.316;2023-10-13T14:06:48;19.90;99.90
10660;DHT22;5378;53.206;13.316;2023-10-13T14:09:36;19.80;99.90
10660;DHT22;5378;53.206;13.316;2023-10-13T14:12:27;19.80;99.90
10660;DHT22;5378;53.206;13.316;2023-10-13T14:15:27;19.80;99.90
10660;DHT22;5378;53.206;13.316;2023-10-13T14:18:14;19.80;99.90
10660;DHT22;5378;53.206;13.316;2023-10-13T14:21:02;19.90;99.90
10660;DHT22;5378;53.206;13.316;2023-10-13T14:23:51;19.80;99.90
10660;DHT22;5378;53.206;13.316;2023-10-13T14:26:39;19.80;99.90
10660;DHT22;5378;53.206;13.316;2023-10-13T14:29:30;19.80;99.90
10660;DHT22;5378;53.206;13.316;2023-10-13T14:32:17;19.80;99.90
10660;DHT22;5378;53.206;13.316;2023-10-13T14:35:04;19.90;99.90
10660;DHT22;5378;53.206;13.316;2023-10-13T14:38:00;20.00;99.90
10660;DHT22;5378;53.206;13.316;2023-10-13T14:40:46;19.90;99.90
10660;DHT22;5378;53.206;13.316;2023-10-13T14:43:35;19.90;99.90
10660;DHT22;5378;53.206;13.316;2023-10-13T14:46:24;19.70;99.90
10660;DHT22;5378;53.206;13.316;2023-10-13T14:49:11;19.70;99.90
10660;DHT22;5378;53.206;13.316;2023-10-13T14:52:00;19.60;99.90
10660;DHT22;5378;53.206;13.316;2023-10-13T14:54:47;19.60;99.90
10660;DHT22;5378;53.206;13.316;2023-10-13T14:57:41;19.60;99.90
10660;DHT22;5378;53.206;13.316;2023-10-13T15:00:27;19.60;99.90
10660;DHT22;5378;53.206;13.316;2023-10-13T15:03:19;19.60;99.90
10660;DHT22;5378;53.206;13.316;2023-10-13T15:06:07;19.60;99.90
10660;DHT22;5378;53.206;13.316;2023-10-13T15:08:55;19.60;99.90
10660;DHT22;5378;53.206;13.316;2023-10-13T15:11:43;19.60;99.90
10660;DHT22;5378;53.206;13.316;2023-10-13T15:14:34;19.60;99.90
10660;DHT22;5378;53.206;13.316;2023-10-13T15:17:23;19.60;99.90
10660;DHT22;5378;53.206;13.316;2023-10-13T15:20:12;19.60;99.90
10660;DHT22;5378;53.206;13.316;2023-10-13T15:23:04;19.60;99.90
10660;DHT22;5378;53.206;13.316;2023-10-13T15:25:52;19.60;99.90
10660;DHT22;5378;53.206;13.316;2023-10-13T15:28:39;19.60;99.90
10660;DHT22;5378;53.206;13.316;2023-10-13T15:31:34;19.60;99.90
10660;DHT22;5378;53.206;13.316;2023-10-13T15:34:27;19.60;99.90
10660;DHT22;5378;53.206;13.316;2023-10-13T15:37:16;19.50;99.90
10660;DHT22;5378;53.206;13.316;2023-10-13T15:40:03;19.50;99.90
10660;DHT22;5378;53.206;13.316;2023-10-13T15:42:51;19.50;99.90
10660;DHT22;5378;53.206;13.316;2023-10-13T15:45:42;19.50;99.90
10660;DHT22;5378;53.206;13.316;2023-10-13T15:48:29;19.50;99.90
10660;DHT22;5378;53.206;13.316;2023-10-13T15:51:16;19.30;99.90
10660;DHT22;5378;53.206;13.316;2023-10-13T15:54:05;19.30;99.90
10660;DHT22;5378;53.206;13.316;2023-10-13T15:56:58;19.30;99.90
10660;DHT22;5378;53.206;13.316;2023-10-13T15:59:46;19.30;99.90
10660;DHT22;5378;53.206;13.316;2023-10-13T16:02:33;19.40;99.90
10660;DHT22;5378;53.206;13.316;2023-10-13T16:05:20;19.40;99.90
10660;DHT22;5378;53.206;13.316;2023-10-13T16:08:09;19.40;99.90
10660;DHT22;5378;53.206;13.316;2023-10-13T16:11:06;19.40;99.90
10660;DHT22;5378;53.206;13.316;2023-10-13T16:13:54;19.40;99.90
10660;DHT22;5378;53.206;13.316;2023-10-13T16:16:41;19.30;99.90
10660;DHT22;5378;53.206;13.316;2023-10-13T16:19:32;19.20;99.90
10660;DHT22;5378;53.206;13.316;2023-10-13T16:22:21;19.20;99.90
10660;DHT22;5378;53.206;13.316;2023-10-13T16:25:08;19.10;99.90
10660;DHT22;5378;53.206;13.316;2023-10-13T16:28:03;19.10;99.90
10660;DHT22;5378;53.206;13.316;2023-10-13T16:30:51;19.10;99.90
10660;DHT22;5378;53.206;13.316;2023-10-13T16:33:40;19.10;99.90
10660;DHT22;5378;53.206;13.316;2023-10-13T16:36:27;19.00;99.90
10660;DHT22;5378;53.206;13.316;2023-10-13T16:39:16;19.10;99.90
10660;DHT22;5378;53.206;13.316;2023-10-13T16:42:08;19.10;99.90
10660;DHT22;5378;53.206;13.316;2023-10-13T16:44:57;19.10;99.90
10660;DHT22;5378;53.206;13.316;2023-10-13T16:47:44;18.90;99.90
10660;DHT22;5378;53.206;13.316;2023-10-13T16:50:32;19.00;99.90
10660;DHT22;5378;53.206;13.316;2023-10-13T16:53:23;19.00;99.90
10660;DHT22;5378;53.206;13.316;2023-10-13T16:56:10;19.00;99.90
10660;DHT22;5378;53.206;13.316;2023-10-13T16:58:58;19.00;99.90
10660;DHT22;5378;53.206;13.316;2023-10-13T17:01:48;19.00;99.90
10660;DHT22;5378;53.206;13.316;2023-10-13T17:04:34;19.00;99.90
10660;DHT22;5378;53.206;13.316;2023-10-13T17:07:21;19.10;99.90
10660;DHT22;5378;53.206;13.316;2023-10-13T17:10:09;19.00;99.90
10660;DHT22;5378;53.206;13.316;2023-10-13T17:12:56;19.00;99.90
10660;DHT22;5378;53.206;13.316;2023-10-13T17:15:45;18.90;99.90
10660;DHT22;5378;53.206;13.316;2023-10-13T17:18:35;18.90;99.90
10660;DHT22;5378;53.206;13.316;2023-10-13T17:21:24;18.90;99.90
10660;DHT22;5378;53.206;13.316;2023-10-13T17:24:12;19.00;99.90
10660;DHT22;5378;53.206;13.316;2023-10-13T17:26:59;19.00;99.90
10660;DHT22;5378;53.206;13.316;2023-10-13T17:29:47;19.10;99.90
10660;DHT22;5378;53.206;13.316;2023-10-13T17:32:35;19.20;99.90
10660;DHT22;5378;53.206;13.316;2023-10-13T17:35:24;19.20;99.90
10660;DHT22;5378;53.206;13.316;2023-10-13T17:38:12;19.20;99.90
10660;DHT22;5378;53.206;13.316;2023-10-13T17:40:59;19.20;99.90
10660;DHT22;5378;53.206;13.316;2023-10-13T17:43:46;19.30;99.90
10660;DHT22;5378;53.206;13.316;2023-10-13T17:46:33;19.30;99.90
10660;DHT22;5378;53.206;13.316;2023-10-13T17:49:21;19.30;99.90
10660;DHT22;5378;53.206;13.316;2023-10-13T17:52:10;19.40;99.90
10660;DHT22;5378;53.206;13.316;2023-10-13T17:54:56;19.50;99.90
10660;DHT22;5378;53.206;13.316;2023-10-13T17:57:44;19.50;99.90
10660;DHT22;5378;53.206;13.316;2023-10-13T18:00:32;19.60;99.90
10660;DHT22;5378;53.206;13.316;2023-10-13T18:03:19;19.80;99.90
10660;DHT22;5378;53.206;13.316;2023-10-13T18:06:06;19.70;99.90
10660;DHT22;5378;53.206;13.316;2023-10-13T18:08:57;19.70;99.90
10660;DHT22;5378;53.206;13.316;2023-10-13T18:11:44;19.80;99.90